Time;durP1;ratioP1;P1;durP2;ratioP2;P2;SDS_P1;SDS_P2;PMS_P1;PMS_P2;Temp;Humidity;BMP_temperature;BMP_pressure;BME280_temperature;BME280_humidity;BME280_pressure;Samples;Min_cycle;Max_cycle;Signal;HPM_P1;HPM_P2
2023/02/27 00:02:26;;;;;;;;;;;;;;;27.80;53.34;101483.22;5071764;27;70079;-45
2023/02/27 00:04:56;;;;;;;;;;;;;;;27.83;54.12;101489.09;5067399;27;66820;-40
2023/02/27 00:07:27;;;;;;;;;;;;;;;27.85;54.71;101486.19;5095676;27;70588;-40
2023/02/27 00:09:57;;;;;;;;;;;;;;;27.89;55.42;101492.03;5092901;27;66810;-40
2023/02/27 00:12:27;;;;;;;;;;;;;;;27.92;55.47;101480.91;5091733;27;69715;-39
2023/02/27 00:14:57;;;;;;;;;;;;;;;27.92;55.61;101483.59;5093233;27;66248;-40
2023/02/27 00:17:28;;;;;;;;;;;;;;;27.92;56.06;101484.44;5091578;27;69754;-40
2023/02/27 00:19:59;;;;;;;;;;;;;;;27.93;56.20;101482.56;5087987;27;67251;-41
2023/02/27 00:22:29;;;;;;;;;;;;;;;27.95;56.13;101500.25;5089351;27;70068;-40
2023/02/27 00:24:59;;;;;;;;;;;;;;;27.99;56.32;101498.84;5088947;27;66637;-43
2023/02/27 00:27:29;;;;;;;;;;;;;;;28.02;56.46;101497.63;5071831;27;69535;-40
2023/02/27 00:29:59;;;;;;;;;;;;;;;28.03;56.21;101499.31;5078775;28;66525;-39
2023/02/27 00:32:31;;;;;;;;;;;;;;;28.04;56.24;101509.91;5097537;27;70360;-42
2023/02/27 00:35:08;;;;;;;;;;;;;;;28.03;56.35;101508.25;5082104;27;66789;-40
2023/02/27 00:37:39;;;;;;;;;;;;;;;28.05;56.18;101508.91;5088317;27;69166;-40
2023/02/27 00:40:10;;;;;;;;;;;;;;;28.05;56.11;101522.38;5091276;27;66441;-40
2023/02/27 00:42:40;;;;;;;;;;;;;;;28.06;55.98;101518.66;5092174;27;71837;-40
2023/02/27 00:45:10;;;;;;;;;;;;;;;28.07;55.70;101516.78;5091542;27;66538;-40
2023/02/27 00:47:40;;;;;;;;;;;;;;;28.11;55.52;101517.25;5091120;27;70715;-40
2023/02/27 00:50:10;;;;;;;;;;;;;;;28.10;55.32;101523.69;5091819;27;65733;-39
2023/02/27 00:52:41;;;;;;;;;;;;;;;28.11;56.08;101525.34;5089396;27;70034;-40
2023/02/27 00:55:11;;;;;;;;;;;;;;;28.13;56.08;101520.59;5086266;27;67127;-41
2023/02/27 00:57:41;;;;;;;;;;;;;;;28.11;55.65;101526.19;5093036;27;69584;-42
2023/02/27 01:00:12;;;;;;;;;;;;;;;28.10;55.65;101526.38;5090942;27;66664;-42
2023/02/27 01:02:42;;;;;;;;;;;;;;;28.08;55.08;101529.25;5059245;27;69141;-41
2023/02/27 01:05:12;;;;;;;;;;;;;;;28.10;54.87;101537.16;5076205;27;67053;-41
2023/02/27 01:07:42;;;;;;;;;;;;;;;28.11;54.32;101536.13;5094293;27;69428;-41
2023/02/27 01:10:12;;;;;;;;;;;;;;;28.13;54.08;101537.63;5075324;27;65784;-42
2023/02/27 01:12:42;;;;;;;;;;;;;;;28.15;54.37;101534.75;5079376;27;69223;-41
2023/02/27 01:15:12;;;;;;;;;;;;;;;28.17;53.87;101530.00;5093674;27;66671;-41
2023/02/27 01:17:42;;;;;;;;;;;;;;;28.18;53.81;101534.38;5095032;27;70817;-42
2023/02/27 01:20:12;;;;;;;;;;;;;;;28.22;53.99;101535.66;5094122;27;66823;-42
2023/02/27 01:22:45;;;;;;;;;;;;;;;28.23;53.69;101550.84;5097026;27;69713;-41
2023/02/27 01:25:16;;;;;;;;;;;;;;;28.26;53.46;101553.16;5093000;27;66775;-41
2023/02/27 01:27:45;;;;;;;;;;;;;;;28.27;53.75;101549.44;5098353;27;69820;-43
2023/02/27 01:30:16;;;;;;;;;;;;;;;28.28;53.64;101545.72;5092405;27;66279;-41
2023/02/27 01:32:46;;;;;;;;;;;;;;;28.29;53.39;101559.00;5071332;27;69100;-43
2023/02/27 01:35:16;;;;;;;;;;;;;;;28.32;53.32;101552.41;5095679;27;65841;-43
2023/02/27 01:37:48;;;;;;;;;;;;;;;28.35;53.11;101552.03;5095143;27;69722;-42
2023/02/27 01:40:19;;;;;;;;;;;;;;;28.35;53.32;101546.63;5097506;27;65956;-43
2023/02/27 01:42:49;;;;;;;;;;;;;;;28.38;52.97;101565.16;5097227;27;70492;-42
2023/02/27 01:45:25;;;;;;;;;;;;;;;28.39;53.04;101563.28;5092381;27;65787;-44
2023/02/27 01:47:59;;;;;;;;;;;;;;;28.40;52.61;101560.41;5077202;27;69918;-41
2023/02/27 01:50:30;;;;;;;;;;;;;;;28.42;53.04;101562.94;5097072;27;66698;-42
2023/02/27 01:53:01;;;;;;;;;;;;;;;28.43;52.63;101560.06;5071206;27;69915;-41
2023/02/27 01:55:32;;;;;;;;;;;;;;;28.45;52.63;101558.03;5091415;27;65661;-43
2023/02/27 01:58:04;;;;;;;;;;;;;;;28.47;52.33;101571.31;5091470;27;71256;-41
2023/02/27 02:00:36;;;;;;;;;;;;;;;28.49;52.81;101563.88;5073613;27;67132;-39
2023/02/27 02:03:22;;;;;;;;;;;;;;;28.50;52.34;101561.00;5093590;27;70135;-42
2023/02/27 02:05:54;;;;;;;;;;;;;;;28.51;52.39;101546.47;5089562;27;67538;-42
2023/02/27 02:08:26;;;;;;;;;;;;;;;28.54;52.22;101557.91;5074396;27;70783;-42
2023/02/27 02:10:57;;;;;;;;;;;;;;;28.56;52.14;101559.41;5084056;27;66153;-41
2023/02/27 02:13:27;;;;;;;;;;;;;;;28.60;52.27;101559.84;5092380;27;69166;-44
2023/02/27 02:16:00;;;;;;;;;;;;;;;28.62;52.43;101555.13;5096109;27;66934;-44
2023/02/27 02:18:41;;;;;;;;;;;;;;;28.63;52.45;101554.09;5071992;27;70080;-42
2023/02/27 02:21:17;;;;;;;;;;;;;;;28.65;51.94;101557.44;5093929;27;65347;-43
2023/02/27 02:24:12;;;;;;;;;;;;;;;28.67;52.38;101558.09;5092197;27;70549;-42
2023/02/27 02:26:42;;;;;;;;;;;;;;;28.29;52.15;101498.81;5075839;27;66033;-41
2023/02/27 02:29:27;;;;;;;;;;;;;;;28.72;51.72;101563.72;5076240;27;69970;-43
2023/02/27 02:32:23;;;;;;;;;;;;;;;28.74;51.73;101561.69;5077966;27;66577;-43
2023/02/27 02:35:02;;;;;;;;;;;;;;;28.77;52.07;101558.59;5098607;27;70397;-41
2023/02/27 02:37:58;;;;;;;;;;;;;;;28.79;52.07;101569.22;5074689;27;66819;-41
2023/02/27 02:40:37;;;;;;;;;;;;;;;28.82;51.98;101574.25;5090734;27;69922;-41
2023/02/27 02:43:11;;;;;;;;;;;;;;;28.60;52.00;101530.16;5070669;27;66596;-42
2023/02/27 02:45:59;;;;;;;;;;;;;;;28.86;51.69;101564.72;5079929;27;69414;-42
2023/02/27 02:48:39;;;;;;;;;;;;;;;28.88;51.55;101568.91;5076906;27;66567;-42
2023/02/27 02:51:27;;;;;;;;;;;;;;;28.93;51.71;101565.66;5092719;27;70190;-40
2023/02/27 02:54:04;;;;;;;;;;;;;;;28.94;51.76;101562.75;5080192;27;66226;-42
2023/02/27 02:56:42;;;;;;;;;;;;;;;28.97;51.38;101564.22;5088502;27;70423;-42
2023/02/27 02:59:15;;;;;;;;;;;;;;;28.99;51.30;101559.47;5064019;27;66123;-41
2023/02/27 03:01:49;;;;;;;;;;;;;;;29.02;51.38;101563.66;5102996;27;70099;-41
2023/02/27 03:04:23;;;;;;;;;;;;;;;29.05;51.57;101544.41;5083909;27;66025;-42
2023/02/27 03:06:57;;;;;;;;;;;;;;;28.88;51.31;101514.91;5094350;27;70624;-42
2023/02/27 03:09:36;;;;;;;;;;;;;;;29.10;50.94;101555.47;5070557;27;65958;-41
2023/02/27 03:12:09;;;;;;;;;;;;;;;29.12;51.24;101554.25;5092194;27;70715;-42
2023/02/27 03:15:02;;;;;;;;;;;;;;;29.15;51.10;101555.75;5083756;27;66750;-41
2023/02/27 03:17:39;;;;;;;;;;;;;;;29.17;51.15;101551.00;5085005;27;70750;-41
2023/02/27 03:20:30;;;;;;;;;;;;;;;29.20;51.13;101533.53;5094713;27;67069;-41
2023/02/27 03:23:03;;;;;;;;;;;;;;;29.24;51.16;101529.44;5054437;27;70647;-41
2023/02/27 03:25:35;;;;;;;;;;;;;;;29.26;50.58;101527.38;5071947;27;65683;-41
2023/02/27 03:28:10;;;;;;;;;;;;;;;29.29;50.97;101521.56;5084585;27;70793;-41
2023/02/27 03:30:46;;;;;;;;;;;;;;;29.30;50.96;101513.25;5080799;27;65550;-41
2023/02/27 03:33:20;;;;;;;;;;;;;;;29.33;50.40;101517.44;5081208;27;69294;-41
2023/02/27 03:36:10;;;;;;;;;;;;;;;29.35;50.82;101518.91;5067697;27;66676;-40
2023/02/27 03:38:55;;;;;;;;;;;;;;;29.38;50.69;101521.22;5090127;27;70711;-41
2023/02/27 03:41:30;;;;;;;;;;;;;;;29.41;50.79;101514.59;5076414;27;66675;-41
2023/02/27 03:44:44;;;;;;;;;;;;;;;29.44;50.05;101513.38;5085845;27;70123;-42
2023/02/27 03:47:14;;;;;;;;;;;;;;;29.47;50.02;101512.97;5066846;27;66680;-41
2023/02/27 03:49:44;;;;;;;;;;;;;;;29.50;49.95;101509.88;5078749;27;70118;-42
2023/02/27 03:52:15;;;;;;;;;;;;;;;29.51;49.82;101504.28;5080341;27;65494;-42
2023/02/27 03:54:49;;;;;;;;;;;;;;;29.55;50.46;101491.22;5075652;27;70598;-41
2023/02/27 03:57:19;;;;;;;;;;;;;;;29.58;50.08;101485.41;5077419;27;65582;-41
2023/02/27 03:59:49;;;;;;;;;;;;;;;29.61;49.99;101482.31;5056882;27;69607;-42
2023/02/27 04:02:20;;;;;;;;;;;;;;;29.64;49.78;101481.13;5071903;27;66120;-41
2023/02/27 04:04:50;;;;;;;;;;;;;;;29.67;49.69;101469.91;5064996;27;70659;-41
2023/02/27 04:07:46;;;;;;;;;;;;;;;29.68;50.02;101464.31;5088429;27;66313;-41
2023/02/27 04:10:34;;;;;;;;;;;;;;;29.71;49.75;101461.22;5098677;27;70157;-41
2023/02/27 04:13:17;;;;;;;;;;;;;;;29.73;49.94;101458.31;5090469;27;66170;-42
2023/02/27 04:16:05;;;;;;;;;;;;;;;29.75;49.48;101457.06;5096033;27;69743;-42
2023/02/27 04:18:41;;;;;;;;;;;;;;;29.78;49.99;101456.69;5094257;27;66817;-41
2023/02/27 04:21:29;;;;;;;;;;;;;;;29.80;49.50;101448.34;5094700;27;70741;-42
2023/02/27 04:23:59;;;;;;;;;;;;;;;29.82;49.89;101443.59;5086228;27;65494;-41
2023/02/27 04:26:36;;;;;;;;;;;;;;;29.84;49.26;101445.06;5089440;27;70421;-43
2023/02/27 04:29:10;;;;;;;;;;;;;;;29.89;49.37;101435.50;5088405;27;65523;-42
2023/02/27 04:31:43;;;;;;;;;;;;;;;29.91;49.78;101436.16;5083978;27;69748;-43
2023/02/27 04:34:52;;;;;;;;;;;;;;;29.92;49.15;101418.88;5082330;27;65690;-44
2023/02/27 04:37:25;;;;;;;;;;;;;;;29.95;49.55;101424.72;5034993;28;69133;-42
2023/02/27 04:40:08;;;;;;;;;;;;;;;29.96;49.60;101415.56;5006179;28;66628;-43
2023/02/27 04:42:40;;;;;;;;;;;;;;;29.99;49.29;101411.63;5072714;27;69829;-43
2023/02/27 04:45:12;;;;;;;;;;;;;;;30.00;48.74;101408.69;5097849;27;66745;-42
2023/02/27 04:47:46;;;;;;;;;;;;;;;30.02;48.96;101408.53;5079725;27;69846;-43
2023/02/27 04:50:21;;;;;;;;;;;;;;;30.04;48.77;101398.34;5090837;27;66077;-44
2023/02/27 04:52:58;;;;;;;;;;;;;;;30.05;49.20;101395.41;5086107;27;69932;-42
2023/02/27 04:55:32;;;;;;;;;;;;;;;30.07;48.79;101389.81;5088469;27;66771;-42
2023/02/27 04:58:06;;;;;;;;;;;;;;;30.09;48.77;101376.94;5091579;27;70547;-44
2023/02/27 05:00:39;;;;;;;;;;;;;;;30.10;48.69;101372.34;5090700;27;66900;-42
2023/02/27 05:03:18;;;;;;;;;;;;;;;30.12;49.06;101360.28;5087189;27;70398;-42
2023/02/27 05:05:49;;;;;;;;;;;;;;;30.13;49.09;101351.13;5095552;27;66088;-42
2023/02/27 05:08:30;;;;;;;;;;;;;;;30.14;49.02;101352.78;5084966;27;70271;-42
2023/02/27 05:11:04;;;;;;;;;;;;;;;30.17;48.79;101348.81;5089576;27;66441;-42
2023/02/27 05:13:38;;;;;;;;;;;;;;;30.19;48.84;101341.34;5086714;27;69965;-42
2023/02/27 05:16:12;;;;;;;;;;;;;;;30.20;48.94;101324.91;5088111;27;65955;-42
2023/02/27 05:18:42;;;;;;;;;;;;;;;30.22;48.56;101322.84;5090526;27;69952;-42
2023/02/27 05:21:17;;;;;;;;;;;;;;;30.24;48.90;101315.38;5093020;27;65525;-41
2023/02/27 05:23:59;;;;;;;;;;;;;;;30.27;48.47;101322.25;5087892;27;70724;-41
2023/02/27 05:26:35;;;;;;;;;;;;;;;30.29;48.87;101320.19;5087432;27;66028;-41
2023/02/27 05:29:09;;;;;;;;;;;;;;;30.31;48.93;101309.97;5083023;27;69654;-42
2023/02/27 05:31:49;;;;;;;;;;;;;;;30.34;48.71;101300.59;5085479;27;66565;-41
2023/02/27 05:34:25;;;;;;;;;;;;;;;30.36;48.32;101303.94;5086227;27;70380;-41
2023/02/27 05:37:11;;;;;;;;;;;;;;;30.38;48.53;101299.16;5093008;27;65265;-42
2023/02/27 05:39:42;;;;;;;;;;;;;;;30.41;48.62;101285.19;5085804;27;70735;-43
2023/02/27 05:42:17;;;;;;;;;;;;;;;30.43;48.62;101275.00;5097467;27;66996;-41
2023/02/27 05:44:50;;;;;;;;;;;;;;;30.45;48.36;101278.31;5091956;27;70158;-42
2023/02/27 05:47:24;;;;;;;;;;;;;;;30.47;48.66;101277.06;5097752;27;66523;-42
2023/02/27 05:50:20;;;;;;;;;;;;;;;30.50;48.60;101278.53;5090270;27;69750;-42
2023/02/27 05:52:52;;;;;;;;;;;;;;;30.53;48.64;101270.00;5093972;27;66828;-41
2023/02/27 05:55:27;;;;;;;;;;;;;;;30.55;48.26;101261.69;5091644;27;69239;-42
2023/02/27 05:58:05;;;;;;;;;;;;;;;30.56;47.95;101247.91;5073005;27;66010;-43
2023/02/27 06:00:40;;;;;;;;;;;;;;;30.60;48.08;101248.34;5091970;27;69727;-43
2023/02/27 06:03:10;;;;;;;;;;;;;;;30.61;47.96;101237.28;5093218;27;66515;-43
2023/02/27 06:05:42;;;;;;;;;;;;;;;30.64;48.12;101234.16;5090298;27;69054;-41
2023/02/27 06:08:12;;;;;;;;;;;;;;;30.66;48.15;101223.97;5074134;27;66521;-41
2023/02/27 06:10:42;;;;;;;;;;;;;;;30.68;47.84;101227.31;5094899;27;70459;-41
2023/02/27 06:13:12;;;;;;;;;;;;;;;30.70;48.19;101227.94;5090497;27;66106;-42
2023/02/27 06:15:42;;;;;;;;;;;;;;;30.74;47.77;101217.50;5083164;27;69793;-42
2023/02/27 06:18:12;;;;;;;;;;;;;;;30.76;47.82;101209.16;5094141;27;66823;-41
2023/02/27 06:20:43;;;;;;;;;;;;;;;30.78;47.61;101201.66;5089537;27;69944;-42
2023/02/27 06:23:13;;;;;;;;;;;;;;;30.82;47.66;101202.94;5092941;27;65528;-41
2023/02/27 06:25:43;;;;;;;;;;;;;;;30.83;47.53;101191.03;5089635;27;69391;-41
2023/02/27 06:28:13;;;;;;;;;;;;;;;30.87;47.56;101184.16;5091141;27;65377;-41
2023/02/27 06:30:43;;;;;;;;;;;;;;;30.89;47.50;101177.47;5089368;27;69206;-42
2023/02/27 06:33:14;;;;;;;;;;;;;;;30.92;47.46;101176.22;5084696;27;66594;-41
2023/02/27 06:35:44;;;;;;;;;;;;;;;30.96;47.69;101176.66;5089598;27;70426;-41
2023/02/27 06:38:14;;;;;;;;;;;;;;;30.97;47.80;101170.16;5094596;27;66304;-42
2023/02/27 06:40:43;;;;;;;;;;;;;;;31.00;47.54;101162.44;5094277;27;70260;-41
2023/02/27 06:43:13;;;;;;;;;;;;;;;31.01;47.51;101164.13;5096319;27;66275;-41
2023/02/27 06:45:43;;;;;;;;;;;;;;;31.06;47.09;101155.31;5097178;27;70321;-42
2023/02/27 06:48:13;;;;;;;;;;;;;;;31.06;47.40;101150.72;5096562;27;66220;-40
2023/02/27 06:50:43;;;;;;;;;;;;;;;31.10;47.38;101146.56;5095094;27;70629;-42
2023/02/27 06:53:13;;;;;;;;;;;;;;;31.14;46.89;101141.53;5096060;27;65903;-42
2023/02/27 06:55:43;;;;;;;;;;;;;;;31.16;47.48;101132.16;5086319;27;69871;-41
2023/02/27 06:58:13;;;;;;;;;;;;;;;31.21;46.88;101136.09;5098262;27;65502;-43
2023/02/27 07:00:43;;;;;;;;;;;;;;;31.24;47.45;101135.66;5096663;27;69699;-41
2023/02/27 07:03:13;;;;;;;;;;;;;;;31.27;46.88;101127.91;5090812;27;65911;-41
2023/02/27 07:05:44;;;;;;;;;;;;;;;31.31;47.23;101120.19;5097792;27;70018;-41
2023/02/27 07:08:16;;;;;;;;;;;;;;;31.34;46.73;101119.75;5094293;27;66453;-41
2023/02/27 07:10:47;;;;;;;;;;;;;;;31.38;46.96;101121.00;5089869;27;70512;-41
2023/02/27 07:13:18;;;;;;;;;;;;;;;31.40;46.70;101113.50;5092723;27;66159;-41
2023/02/27 07:15:49;;;;;;;;;;;;;;;31.45;46.43;101108.22;5094964;27;70778;-42
2023/02/27 07:18:19;;;;;;;;;;;;;;;31.50;46.60;101102.16;5089586;27;65919;-42
2023/02/27 07:20:50;;;;;;;;;;;;;;;31.54;46.68;101106.09;5091523;27;69650;-42
2023/02/27 07:23:22;;;;;;;;;;;;;;;31.58;46.26;101102.72;5098035;27;66087;-43
2023/02/27 07:25:52;;;;;;;;;;;;;;;31.60;46.44;101100.63;5092388;27;70037;-41
2023/02/27 07:28:22;;;;;;;;;;;;;;;31.64;46.44;101102.91;5095657;27;67307;-42
2023/02/27 07:30:54;;;;;;;;;;;;;;;31.68;46.26;101095.97;5094572;27;69747;-41
2023/02/27 07:33:24;;;;;;;;;;;;;;;31.72;46.40;101102.63;5073812;27;66469;-42
2023/02/27 07:35:54;;;;;;;;;;;;;;;31.73;46.07;101088.00;5093725;27;69105;-43
2023/02/27 07:38:24;;;;;;;;;;;;;;;31.77;45.99;101076.50;5097831;27;66771;-41
2023/02/27 07:40:54;;;;;;;;;;;;;;;31.79;45.89;101070.88;5092012;27;70518;-42
2023/02/27 07:43:25;;;;;;;;;;;;;;;31.84;46.10;101071.00;5088352;27;65454;-42
2023/02/27 07:45:54;;;;;;;;;;;;;;;31.88;46.05;101074.13;5074515;27;70575;-42
2023/02/27 07:48:24;;;;;;;;;;;;;;;31.92;46.12;101078.06;5073225;27;66054;-42
2023/02/27 07:50:54;;;;;;;;;;;;;;;31.94;46.00;101076.78;5073121;27;69867;-43
2023/02/27 07:53:25;;;;;;;;;;;;;;;31.97;45.69;101065.50;5087230;27;66331;-41
2023/02/27 07:55:55;;;;;;;;;;;;;;;32.01;45.74;101055.00;5095157;27;69235;-42
2023/02/27 07:58:25;;;;;;;;;;;;;;;32.05;45.77;101057.06;5079020;27;66673;-42
2023/02/27 08:00:55;;;;;;;;;;;;;;;32.07;45.66;101059.56;5099801;27;69615;-41
2023/02/27 08:03:25;;;;;;;;;;;;;;;32.12;45.63;101061.59;5093078;27;65991;-42
2023/02/27 08:05:55;;;;;;;;;;;;;;;32.15;45.60;101061.13;5095712;27;70690;-41
2023/02/27 08:08:28;;;;;;;;;;;;;;;32.18;45.55;101055.25;5094355;27;65363;-42
2023/02/27 08:10:58;;;;;;;;;;;;;;;32.22;45.39;101056.47;5093194;27;68707;-41
2023/02/27 08:13:28;;;;;;;;;;;;;;;32.23;45.44;101048.13;5083980;27;66668;-42
2023/02/27 08:16:18;;;;;;;;;;;;;;;32.26;45.51;101046.81;5088007;27;70289;-42
2023/02/27 08:18:48;;;;;;;;;;;;;;;32.29;45.41;101057.25;5087975;27;65955;-41
2023/02/27 08:21:18;;;;;;;;;;;;;;;32.33;45.31;101057.63;5094676;27;69994;-42
2023/02/27 08:23:48;;;;;;;;;;;;;;;32.35;45.28;101058.22;5090893;27;65085;-42
2023/02/27 08:26:18;;;;;;;;;;;;;;;32.37;45.20;101059.63;5095838;27;70066;-42
2023/02/27 08:28:48;;;;;;;;;;;;;;;32.38;45.13;101055.88;5092882;27;66998;-43
2023/02/27 08:31:18;;;;;;;;;;;;;;;32.41;45.13;101054.59;5088129;27;69519;-42
2023/02/27 08:33:49;;;;;;;;;;;;;;;32.44;45.17;101059.56;5086797;27;65456;-41
2023/02/27 08:36:35;;;;;;;;;;;;;;;32.45;45.00;101064.75;5096629;27;69956;-41
2023/02/27 08:39:06;;;;;;;;;;;;;;;32.48;45.09;101063.50;5098205;27;66694;-41
2023/02/27 08:41:36;;;;;;;;;;;;;;;32.51;45.04;101065.78;5086592;27;70462;-43
2023/02/27 08:44:06;;;;;;;;;;;;;;;32.52;45.02;101066.63;5094887;27;66862;-42
2023/02/27 08:46:36;;;;;;;;;;;;;;;32.53;45.10;101069.09;5095625;27;69991;-42
2023/02/27 08:49:06;;;;;;;;;;;;;;;32.55;45.03;101067.00;5091423;27;65741;-42
2023/02/27 08:51:36;;;;;;;;;;;;;;;32.58;44.95;101071.16;5096273;27;70634;-41
2023/02/27 08:54:06;;;;;;;;;;;;;;;32.59;44.99;101072.78;5087058;27;66640;-41
2023/02/27 08:56:37;;;;;;;;;;;;;;;32.60;44.84;101074.47;5099758;27;69738;-42
2023/02/27 08:59:06;;;;;;;;;;;;;;;32.62;44.87;101075.06;5098660;27;66513;-43
2023/02/27 09:01:36;;;;;;;;;;;;;;;32.63;45.07;101076.72;5091228;27;69883;-42
2023/02/27 09:04:06;;;;;;;;;;;;;;;32.65;44.68;101088.16;5087474;27;66584;-42
2023/02/27 09:06:39;;;;;;;;;;;;;;;32.64;44.86;101081.91;5102033;27;63381;-42
2023/02/27 09:09:09;;;;;;;;;;;;;;;32.66;44.67;101092.56;5096954;27;65738;-42
2023/02/27 09:11:39;;;;;;;;;;;;;;;32.67;44.79;101091.50;5099010;27;70261;-43
2023/02/27 09:14:10;;;;;;;;;;;;;;;32.69;44.96;101094.81;5099298;27;66852;-43
2023/02/27 09:16:40;;;;;;;;;;;;;;;32.70;44.82;101093.75;5102665;27;70667;-42
2023/02/27 09:19:11;;;;;;;;;;;;;;;32.72;44.74;101099.78;5095412;27;65634;-42
2023/02/27 09:21:41;;;;;;;;;;;;;;;32.70;44.94;101096.47;5089276;27;70611;-42
2023/02/27 09:24:11;;;;;;;;;;;;;;;32.73;44.94;101106.88;5090038;27;67119;-43
2023/02/27 09:26:48;;;;;;;;;;;;;;;32.75;45.31;101099.34;5097956;27;70428;-42
2023/02/27 09:29:18;;;;;;;;;;;;;;;32.76;45.30;101109.13;5071166;27;66181;-42
2023/02/27 09:31:48;;;;;;;;;;;;;;;32.77;45.16;101110.81;5075798;27;70329;-40
2023/02/27 09:34:18;;;;;;;;;;;;;;;32.77;45.26;101108.09;5083856;27;66874;-41
2023/02/27 09:36:49;;;;;;;;;;;;;;;32.77;45.51;101110.00;5104122;27;69900;-43
2023/02/27 09:39:19;;;;;;;;;;;;;;;32.79;45.46;101111.44;5107783;27;66451;-41
2023/02/27 09:41:59;;;;;;;;;;;;;;;32.78;45.61;101109.75;5098634;27;69980;-42
2023/02/27 09:44:32;;;;;;;;;;;;;;;32.80;45.53;101118.50;5082411;27;64671;-43
2023/02/27 09:47:28;;;;;;;;;;;;;;;32.80;45.76;101115.78;5092837;27;70169;-43
2023/02/27 09:49:58;;;;;;;;;;;;;;;32.80;45.87;101121.22;5086389;27;65522;-42
2023/02/27 09:52:29;;;;;;;;;;;;;;;32.81;46.13;101122.88;5100088;27;70699;-44
2023/02/27 09:54:59;;;;;;;;;;;;;;;32.80;46.19;101118.50;5096567;27;67672;-42
2023/02/27 09:57:32;;;;;;;;;;;;;;;32.80;46.18;101118.50;5090221;27;70152;-43
2023/02/27 10:00:06;;;;;;;;;;;;;;;32.78;46.28;101120.63;5099467;27;65669;-43
2023/02/27 10:02:47;;;;;;;;;;;;;;;32.77;46.54;101124.41;5100240;27;70850;-42
2023/02/27 10:05:26;;;;;;;;;;;;;;;32.78;46.38;101126.03;5100097;27;67210;-43
2023/02/27 10:07:56;;;;;;;;;;;;;;;32.77;46.43;101121.69;5091821;27;70302;-41
2023/02/27 10:10:38;;;;;;;;;;;;;;;32.76;46.58;101128.16;5090024;27;66270;-43
2023/02/27 10:13:10;;;;;;;;;;;;;;;32.75;46.73;101125.69;5098551;27;69637;-42
2023/02/27 10:15:46;;;;;;;;;;;;;;;32.73;46.69;101128.59;5091124;27;66001;-44
2023/02/27 10:18:19;;;;;;;;;;;;;;;32.74;46.78;101135.72;5095717;27;70646;-42
2023/02/27 10:20:56;;;;;;;;;;;;;;;32.42;48.20;101143.97;5092284;27;66253;-44
2023/02/27 10:23:29;;;;;;;;;;;;;;;32.05;49.46;101114.06;5092694;27;69475;-42
2023/02/27 10:26:00;;;;;;;;;;;;;;;32.07;50.36;101145.53;5098698;27;65029;-43
2023/02/27 10:28:31;;;;;;;;;;;;;;;31.95;51.59;101143.56;5099618;27;69681;-43
2023/02/27 10:31:02;;;;;;;;;;;;;;;31.89;52.99;101149.03;5100272;27;66568;-41
2023/02/27 10:33:35;;;;;;;;;;;;;;;31.80;53.81;101152.00;5090261;27;69943;-43
2023/02/27 10:36:12;;;;;;;;;;;;;;;31.77;54.33;101148.91;5094821;27;66855;-42
2023/02/27 10:39:03;;;;;;;;;;;;;;;31.74;54.90;101152.06;5093975;27;70730;-43
2023/02/27 10:41:34;;;;;;;;;;;;;;;31.68;54.96;101158.34;5099627;27;65145;-42
2023/02/27 10:44:04;;;;;;;;;;;;;;;31.65;55.11;101161.50;5097940;27;70036;-42
2023/02/27 10:46:36;;;;;;;;;;;;;;;31.62;54.85;101160.03;5095583;27;66808;-43
2023/02/27 10:49:13;;;;;;;;;;;;;;;31.57;54.87;101162.59;5094862;27;69671;-42
2023/02/27 10:52:02;;;;;;;;;;;;;;;31.56;55.31;101171.78;5095425;27;66251;-43
2023/02/27 10:54:32;;;;;;;;;;;;;;;31.57;54.94;101173.44;5099142;27;69947;-42
2023/02/27 10:57:05;;;;;;;;;;;;;;;31.54;55.09;101163.88;5096313;27;65578;-42
2023/02/27 10:59:37;;;;;;;;;;;;;;;31.53;55.44;101164.91;5099344;27;70092;-43
2023/02/27 11:02:16;;;;;;;;;;;;;;;31.54;56.07;101169.28;5092509;27;65837;-43
2023/02/27 11:04:52;;;;;;;;;;;;;;;31.50;56.20;101173.47;5099834;27;71102;-43
2023/02/27 11:07:40;;;;;;;;;;;;;;;31.51;56.07;101174.31;5054137;27;65343;-43
2023/02/27 11:10:13;;;;;;;;;;;;;;;31.48;56.33;101181.03;5092443;27;69415;-43
2023/02/27 11:12:56;;;;;;;;;;;;;;;31.46;56.35;101180.41;5096949;27;66316;-44
2023/02/27 11:15:31;;;;;;;;;;;;;;;31.43;56.19;101183.53;5092230;27;70501;-42
2023/02/27 11:18:20;;;;;;;;;;;;;;;31.57;55.89;101185.13;5078895;27;66518;-41
2023/02/27 11:20:49;;;;;;;;;;;;;;;31.73;55.52;101182.94;5093136;27;70894;-49
2023/02/27 11:23:21;;;;;;;;;;;;;;;31.81;55.42;101175.34;5094525;27;66094;-43
2023/02/27 11:26:07;;;;;;;;;;;;;;;31.88;55.29;101175.31;5092851;27;69910;-43
2023/02/27 11:28:37;;;;;;;;;;;;;;;31.92;55.29;101181.97;5097690;27;67986;-43
2023/02/27 11:31:21;;;;;;;;;;;;;;;31.96;54.82;101183.22;5091600;27;70038;-42
2023/02/27 11:33:55;;;;;;;;;;;;;;;32.01;54.55;101186.13;5088646;27;66014;-44
2023/02/27 11:36:40;;;;;;;;;;;;;;;32.02;54.66;101193.19;5092067;27;69917;-43
2023/02/27 11:39:23;;;;;;;;;;;;;;;32.03;54.72;101183.97;5075226;27;65639;-43
2023/02/27 11:41:55;;;;;;;;;;;;;;;32.03;54.54;101189.41;5098664;27;70346;-42
2023/02/27 11:44:27;;;;;;;;;;;;;;;32.04;54.31;101185.66;5094310;27;66629;-41
2023/02/27 11:47:26;;;;;;;;;;;;;;;32.04;54.33;101185.66;5092239;27;70333;-44
2023/02/27 11:50:09;;;;;;;;;;;;;;;32.03;54.22;101194.00;5094768;27;66845;-42
2023/02/27 11:52:47;;;;;;;;;;;;;;;32.03;54.09;101194.84;5073988;27;69055;-43
2023/02/27 11:55:20;;;;;;;;;;;;;;;32.02;53.84;101201.31;5088271;27;66442;-43
2023/02/27 11:57:55;;;;;;;;;;;;;;;32.02;53.93;101197.78;5091087;27;70622;-44
2023/02/27 12:00:25;;;;;;;;;;;;;;;32.01;54.02;101213.25;5092725;27;67028;-43
2023/02/27 12:03:13;;;;;;;;;;;;;;;32.00;53.96;101216.16;5091659;27;70499;-43
2023/02/27 12:05:47;;;;;;;;;;;;;;;31.98;53.87;101218.25;5090447;27;66619;-43
2023/02/27 12:08:23;;;;;;;;;;;;;;;31.98;53.69;101219.13;5090050;27;70775;-44
2023/02/27 12:10:57;;;;;;;;;;;;;;;31.96;53.42;101220.38;5092628;27;67373;-42
2023/02/27 12:13:44;;;;;;;;;;;;;;;31.95;53.67;101219.53;5098409;27;69404;-42
2023/02/27 12:16:26;;;;;;;;;;;;;;;31.93;53.66;101224.38;5092660;27;65632;-44
2023/02/27 12:19:17;;;;;;;;;;;;;;;31.92;53.75;101230.81;5068536;27;71221;-42
2023/02/27 12:21:53;;;;;;;;;;;;;;;31.75;54.58;101224.22;5094681;27;64995;-43
2023/02/27 12:24:25;;;;;;;;;;;;;;;31.59;55.31;101231.84;5093555;27;70775;-43
2023/02/27 12:27:08;;;;;;;;;;;;;;;31.51;55.61;101234.81;5091499;27;65713;-42
2023/02/27 12:29:40;;;;;;;;;;;;;;;31.39;55.84;101233.81;5070080;27;69630;-43
2023/02/27 12:32:11;;;;;;;;;;;;;;;31.35;55.75;101229.84;5070243;27;66247;-42
2023/02/27 12:34:45;;;;;;;;;;;;;;;31.30;56.14;101232.38;5096060;27;69341;-44
2023/02/27 12:37:36;;;;;;;;;;;;;;;31.25;56.46;101240.31;5072423;27;66441;-42
2023/02/27 12:40:08;;;;;;;;;;;;;;;31.24;56.18;101235.94;5088900;27;69844;-44
2023/02/27 12:42:41;;;;;;;;;;;;;;;31.21;57.24;101245.31;5090176;27;67126;-43
2023/02/27 12:45:23;;;;;;;;;;;;;;;31.16;56.48;101248.66;5068244;27;69777;-42
2023/02/27 12:48:05;;;;;;;;;;;;;;;30.92;53.82;101260.19;5086123;27;67002;-42
2023/02/27 12:50:54;;;;;;;;;;;;;;;30.70;51.80;101260.41;5094281;27;70367;-42
2023/02/27 12:53:36;;;;;;;;;;;;;;;30.53;50.02;101264.56;5093368;27;66337;-44
2023/02/27 12:56:14;;;;;;;;;;;;;;;30.34;49.00;101273.53;5087113;27;70191;-43
2023/02/27 12:58:50;;;;;;;;;;;;;;;30.21;48.20;101277.03;5088656;27;66885;-41
2023/02/27 13:01:32;;;;;;;;;;;;;;;30.12;47.25;101281.00;5094737;27;70023;-43
2023/02/27 13:04:28;;;;;;;;;;;;;;;29.99;46.48;101273.66;5096976;27;66980;-42
2023/02/27 13:07:07;;;;;;;;;;;;;;;29.90;45.96;101272.22;5072271;27;70958;-43
2023/02/27 13:09:46;;;;;;;;;;;;;;;29.88;46.56;101282.38;5094874;27;67596;-45
2023/02/27 13:12:16;;;;;;;;;;;;;;;29.84;45.76;101282.78;5085805;27;69218;-47
2023/02/27 13:14:49;;;;;;;;;;;;;;;29.76;46.89;101288.38;5093893;27;66352;-43